createdAt,value
2019-01-26T00:04:52.014Z,100784.35
2019-01-26T00:07:24.491Z,100778.44
2019-01-26T00:09:55.714Z,100782.27
2019-01-26T00:12:32.365Z,100777.62
2019-01-26T00:15:05.164Z,100779.59
2019-01-26T00:17:33.950Z,100769.47
2019-01-26T00:20:03.295Z,100767.30
2019-01-26T00:22:33.523Z,100768.20
2019-01-26T00:25:10.535Z,100771.61
2019-01-26T00:27:47.436Z,100766.50
2019-01-26T00:30:24.560Z,100768.63
2019-01-26T00:32:59.995Z,100763.13
2019-01-26T00:35:31.889Z,100756.25
2019-01-26T00:38:03.315Z,100748.11
2019-01-26T00:40:32.422Z,100752.69
2019-01-26T00:43:01.700Z,100745.44
2019-01-26T00:45:30.449Z,100736.98
2019-01-26T00:47:58.956Z,100731.95
2019-01-26T00:50:27.528Z,100734.00
2019-01-26T00:52:58.463Z,100727.06
2019-01-26T00:55:26.964Z,100730.12
2019-01-26T00:57:55.914Z,100733.61
2019-01-26T01:00:24.967Z,100723.77
2019-01-26T01:02:53.507Z,100724.20
2019-01-26T01:05:22.901Z,100732.30
2019-01-26T01:07:51.649Z,100731.91
2019-01-26T01:10:21.155Z,100734.05
2019-01-26T01:12:51.672Z,100728.02
2019-01-26T01:15:21.824Z,100731.06
2019-01-26T01:17:51.844Z,100720.40
2019-01-26T01:20:20.424Z,100711.02
2019-01-26T01:22:49.249Z,100706.55
2019-01-26T01:25:17.841Z,100704.84
2019-01-26T01:27:46.360Z,100701.87
2019-01-26T01:30:16.047Z,100697.61
2019-01-26T01:32:44.563Z,100695.55
2019-01-26T01:35:13.187Z,100692.19
2019-01-26T01:37:41.913Z,100689.24
2019-01-26T01:40:11.039Z,100690.94
2019-01-26T01:42:39.503Z,100687.53
2019-01-26T01:45:10.081Z,100683.27
2019-01-26T01:47:38.655Z,100684.94
2019-01-26T01:50:08.516Z,100684.71
2019-01-26T01:52:37.132Z,100683.36
2019-01-26T01:55:08.084Z,100685.97
2019-01-26T01:57:36.671Z,100686.48
2019-01-26T02:00:06.987Z,100684.45
2019-01-26T02:02:35.553Z,100680.20
2019-01-26T02:05:04.157Z,100682.64
2019-01-26T02:07:32.869Z,100679.30
2019-01-26T02:10:01.388Z,100669.06
2019-01-26T02:12:29.904Z,100670.77
2019-01-26T02:14:58.739Z,100668.69
2019-01-26T02:17:27.208Z,100668.04
2019-01-26T02:19:56.187Z,100663.05
2019-01-26T02:22:24.845Z,100663.53
2019-01-26T02:24:53.368Z,100661.83
2019-01-26T02:27:23.224Z,100653.73
2019-01-26T02:29:52.155Z,100655.81
2019-01-26T02:32:20.716Z,100652.94
2019-01-26T02:34:49.411Z,100658.03
2019-01-26T02:37:17.997Z,100641.04
2019-01-26T02:39:46.522Z,100642.22
2019-01-26T02:42:14.950Z,100644.80
2019-01-26T02:44:43.720Z,100642.23
2019-01-26T02:47:12.209Z,100637.98
2019-01-26T02:49:40.747Z,100643.94
2019-01-26T02:52:09.548Z,100638.44
2019-01-26T02:54:38.052Z,100632.48
2019-01-26T02:57:06.706Z,100641.80
2019-01-26T02:59:35.371Z,100638.41
2019-01-26T03:02:04.002Z,100638.44
2019-01-26T03:04:32.501Z,100639.25
2019-01-26T03:07:01.692Z,100634.55
2019-01-26T03:09:30.509Z,100633.28
2019-01-26T03:11:59.919Z,100631.58
2019-01-26T03:14:28.607Z,100619.23
2019-01-26T03:16:57.189Z,100620.55
2019-01-26T03:19:26.228Z,100621.36
2019-01-26T03:21:54.835Z,100608.53
2019-01-26T03:24:23.395Z,100613.64
2019-01-26T03:26:51.909Z,100611.89
2019-01-26T03:29:20.676Z,100609.39
2019-01-26T03:31:49.429Z,100612.84
2019-01-26T03:34:18.006Z,100613.22
2019-01-26T03:36:46.627Z,100605.55
2019-01-26T03:39:15.301Z,100600.05
2019-01-26T03:41:43.903Z,100603.89
2019-01-26T03:44:12.614Z,100604.70
2019-01-26T03:46:41.224Z,100597.08
2019-01-26T03:49:09.844Z,100594.09
2019-01-26T03:51:38.914Z,100585.15
2019-01-26T03:54:07.550Z,100585.15
2019-01-26T03:56:36.764Z,100587.74
2019-01-26T03:59:05.881Z,100581.77
2019-01-26T04:01:34.448Z,100582.63
2019-01-26T04:04:02.998Z,100587.28
2019-01-26T04:06:31.601Z,100574.46
2019-01-26T04:09:00.127Z,100579.91
2019-01-26T04:11:28.756Z,100582.84
2019-01-26T04:13:57.325Z,100577.88
2019-01-26T04:16:25.880Z,100570.16
2019-01-26T04:18:54.592Z,100564.20
2019-01-26T04:21:23.216Z,100565.90
2019-01-26T04:23:51.814Z,100571.86
2019-01-26T04:26:21.027Z,100571.81
2019-01-26T04:28:50.216Z,100575.20
2019-01-26T04:31:19.101Z,100566.64
2019-01-26T04:33:48.875Z,100566.23
2019-01-26T04:36:18.129Z,100558.66
2019-01-26T04:38:46.948Z,100560.37
2019-01-26T04:41:15.600Z,100563.81
2019-01-26T04:43:44.408Z,100560.41
2019-01-26T04:46:13.062Z,100559.04
2019-01-26T04:48:41.787Z,100555.75
2019-01-26T04:51:10.503Z,100560.87
2019-01-26T04:53:39.037Z,100558.14
2019-01-26T04:56:07.630Z,100551.84
2019-01-26T04:58:36.397Z,100552.31
2019-01-26T05:01:05.639Z,100552.27
2019-01-26T05:03:34.769Z,100553.62
2019-01-26T05:06:03.494Z,100551.09
2019-01-26T05:08:32.136Z,100550.61
2019-01-26T05:11:00.653Z,100549.37
2019-01-26T05:13:29.512Z,100548.05
2019-01-26T05:15:58.188Z,100544.56
2019-01-26T05:18:26.853Z,100554.48
2019-01-26T05:20:55.699Z,100552.27
2019-01-26T05:23:24.634Z,100551.42
2019-01-26T05:25:53.213Z,100555.67
2019-01-26T05:28:21.926Z,100555.67
2019-01-26T05:30:51.046Z,100554.31
2019-01-26T05:33:19.845Z,100552.28
2019-01-26T05:35:48.565Z,100549.30
2019-01-26T05:38:17.192Z,100542.48
2019-01-26T05:40:45.655Z,100547.16
2019-01-26T05:43:14.224Z,100542.94
2019-01-26T05:45:43.226Z,100542.05
2019-01-26T05:48:11.826Z,100536.94
2019-01-26T05:50:40.595Z,100540.31
2019-01-26T05:53:09.925Z,100542.09
2019-01-26T05:55:38.599Z,100539.92
2019-01-26T05:58:08.235Z,100545.03
2019-01-26T06:00:37.317Z,100537.83
2019-01-26T06:03:06.118Z,100539.53
2019-01-26T06:05:34.882Z,100539.11
2019-01-26T06:08:03.853Z,100535.24
2019-01-26T06:10:32.415Z,100541.23
2019-01-26T06:13:01.095Z,100536.59
2019-01-26T06:15:29.798Z,100529.77
2019-01-26T06:17:58.852Z,100525.52
2019-01-26T06:20:27.620Z,100530.20
2019-01-26T06:22:56.115Z,100529.34
2019-01-26T06:25:24.703Z,100529.38
2019-01-26T06:27:53.342Z,100523.41
2019-01-26T06:30:25.571Z,100524.69
2019-01-26T06:32:54.212Z,100519.97
2019-01-26T06:35:22.824Z,100526.33
2019-01-26T06:37:51.353Z,100522.07
2019-01-26T06:40:20.993Z,100520.38
2019-01-26T06:42:49.785Z,100519.45
2019-01-26T06:45:19.038Z,100519.91
2019-01-26T06:47:47.923Z,100524.20
2019-01-26T06:50:19.527Z,100520.83
2019-01-26T06:52:48.131Z,100519.13
2019-01-26T06:55:17.632Z,100519.13
2019-01-26T06:57:46.290Z,100522.92
2019-01-26T07:00:16.442Z,100520.83
2019-01-26T07:02:45.195Z,100520.80
2019-01-26T07:05:52.080Z,100525.48
2019-01-26T07:08:22.624Z,100524.98
2019-01-26T07:10:51.269Z,100524.13
2019-01-26T07:13:20.009Z,100523.28
2019-01-26T07:15:54.560Z,100522.85
2019-01-26T07:18:23.428Z,100520.26
2019-01-26T07:20:52.355Z,100519.78
2019-01-26T07:23:24.463Z,100524.13
2019-01-26T07:25:53.227Z,100523.70
2019-01-26T07:28:23.636Z,100524.03
2019-01-26T07:30:55.082Z,100523.23
2019-01-26T07:33:24.723Z,100527.53
2019-01-26T07:35:53.645Z,100531.27
2019-01-26T07:38:22.587Z,100532.64
2019-01-26T07:40:51.996Z,100534.30
2019-01-26T07:43:22.218Z,100528.39
2019-01-26T07:46:00.478Z,100528.39
2019-01-26T07:48:29.439Z,100536.52
2019-01-26T07:50:58.359Z,100533.53
2019-01-26T07:53:30.014Z,100529.20
2019-01-26T07:55:59.454Z,100537.70
2019-01-26T07:58:31.764Z,100541.59
2019-01-26T08:01:13.759Z,100540.26
2019-01-26T08:14:03.231Z,100538.08
2019-01-26T08:19:50.221Z,100537.17
2019-01-26T08:22:27.981Z,100537.96
2019-01-26T08:25:39.832Z,100535.09
2019-01-26T08:28:10.030Z,100536.80
2019-01-26T08:31:01.305Z,100544.41
2019-01-26T08:33:32.725Z,100543.55
2019-01-26T08:36:02.821Z,100547.14
2019-01-26T08:38:32.926Z,100542.50
2019-01-26T08:41:04.429Z,100540.84
2019-01-26T08:46:48.629Z,100541.56
2019-01-26T08:49:21.080Z,100543.27
2019-01-26T08:55:32.687Z,100544.88
2019-01-26T08:58:28.281Z,100550.89
2019-01-26T09:01:11.664Z,100553.61
2019-01-26T09:04:08.738Z,100546.83
2019-01-26T09:07:05.464Z,100549.14
2019-01-26T09:09:51.414Z,100553.34
2019-01-26T09:12:23.282Z,100551.63
2019-01-26T09:15:03.637Z,100547.73
2019-01-26T09:17:48.750Z,100551.50
2019-01-26T09:20:44.803Z,100549.56
2019-01-26T09:23:54.699Z,100546.17
2019-01-26T09:26:44.958Z,100554.24
2019-01-26T09:29:26.510Z,100547.86
2019-01-26T09:32:02.528Z,100551.98
2019-01-26T09:35:00.584Z,100548.24
2019-01-26T09:37:30.657Z,100547.81
2019-01-26T09:40:02.288Z,100545.36
2019-01-26T09:42:35.994Z,100547.06
2019-01-26T09:45:05.096Z,100548.24
2019-01-26T09:47:35.464Z,100550.89
2019-01-26T09:50:08.593Z,100553.83
2019-01-26T09:52:43.846Z,100546.27
2019-01-26T09:55:30.748Z,100541.95
2019-01-26T09:57:53.675Z,100538.55
2019-01-26T10:00:24.701Z,100535.95
2019-01-26T10:02:56.700Z,100538.52
2019-01-26T10:05:36.252Z,100536.86
2019-01-26T10:08:10.873Z,100544.99
2019-01-26T10:10:45.164Z,100543.28
2019-01-26T10:13:21.887Z,100539.11
2019-01-26T10:16:12.259Z,100544.61
2019-01-26T10:18:45.611Z,100546.03
2019-01-26T10:21:20.787Z,100541.06
2019-01-26T10:33:03.493Z,100548.58
2019-01-26T10:36:00.671Z,100539.94
2019-01-26T10:38:54.092Z,100536.12
2019-01-26T10:41:52.415Z,100540.00
2019-01-26T10:44:31.792Z,100538.17
2019-01-26T10:47:11.538Z,100538.95
2019-01-26T10:49:44.588Z,100538.59
2019-01-26T10:52:19.654Z,100536.54
2019-01-26T10:54:49.208Z,100531.99
2019-01-26T10:57:20.069Z,100531.63
2019-01-26T10:59:50.511Z,100537.38
2019-01-26T11:02:19.092Z,100537.53
2019-01-26T11:04:47.450Z,100537.22
2019-01-26T11:07:16.139Z,100535.46
2019-01-26T11:09:45.980Z,100534.19
2019-01-26T11:12:37.185Z,100525.79
2019-01-26T11:15:06.227Z,100532.54
2019-01-26T11:17:44.830Z,100522.39
2019-01-26T11:20:14.311Z,100534.25
2019-01-26T11:22:46.743Z,100525.79
2019-01-26T11:25:15.658Z,100522.34
2019-01-26T11:27:44.449Z,100521.11
2019-01-26T11:30:13.090Z,100521.52
2019-01-26T11:32:44.126Z,100516.80
2019-01-26T11:35:14.040Z,100515.65
2019-01-26T11:37:43.912Z,100516.89
2019-01-26T11:40:19.055Z,100510.46
2019-01-26T11:42:47.853Z,100520.76
2019-01-26T11:45:25.108Z,100514.77
2019-01-26T11:47:53.967Z,100516.89
2019-01-26T11:50:28.917Z,100515.23
2019-01-26T11:52:57.520Z,100513.45
2019-01-26T11:55:33.305Z,100511.78
2019-01-26T11:58:01.991Z,100508.05
2019-01-26T12:00:49.325Z,100511.45
2019-01-26T12:03:48.980Z,100506.28
2019-01-26T12:06:21.544Z,100502.51
2019-01-26T12:08:50.007Z,100502.11
2019-01-26T12:11:18.363Z,100503.41
2019-01-26T12:13:46.810Z,100501.20
2019-01-26T12:16:15.248Z,100499.55
2019-01-26T12:18:43.532Z,100499.16
2019-01-26T12:21:12.323Z,100494.03
2019-01-26T12:23:40.795Z,100499.55
2019-01-26T12:26:09.136Z,100500.43
2019-01-26T12:28:37.814Z,100501.66
2019-01-26T12:31:06.215Z,100498.70
2019-01-26T12:33:34.493Z,100494.86
2019-01-26T12:36:02.768Z,100490.20
2019-01-26T12:38:31.202Z,100488.91
2019-01-26T12:40:59.547Z,100488.90
2019-01-26T12:43:27.927Z,100488.90
2019-01-26T12:45:56.349Z,100492.33
2019-01-26T12:48:24.795Z,100493.18
2019-01-26T12:50:53.119Z,100496.14
2019-01-26T12:53:21.439Z,100496.61
2019-01-26T12:55:49.735Z,100497.43
2019-01-26T12:58:18.048Z,100494.88
2019-01-26T13:00:46.478Z,100494.47
2019-01-26T13:03:14.773Z,100483.80
2019-01-26T13:05:43.029Z,100487.20
2019-01-26T13:08:11.393Z,100483.39
2019-01-26T13:10:41.456Z,100486.79
2019-01-26T13:13:09.814Z,100489.34
2019-01-26T13:15:38.351Z,100490.19
2019-01-26T13:18:06.767Z,100489.28
2019-01-26T13:20:35.079Z,100487.16
2019-01-26T13:23:03.454Z,100494.45
2019-01-26T13:25:31.761Z,100493.16
2019-01-26T13:28:00.067Z,100491.88
2019-01-26T13:30:28.521Z,100492.33
2019-01-26T13:32:56.823Z,100494.46
2019-01-26T13:35:25.190Z,100495.30
2019-01-26T13:37:53.631Z,100497.42
2019-01-26T13:40:21.971Z,100496.95
2019-01-26T13:42:50.272Z,100499.36
2019-01-26T13:45:18.635Z,100513.98
2019-01-26T13:47:46.991Z,100505.46
2019-01-26T13:50:16.168Z,100505.39
2019-01-26T13:52:44.479Z,100507.06
2019-01-26T13:55:14.012Z,100505.44
2019-01-26T13:57:42.383Z,100499.47
2019-01-26T14:00:13.611Z,100495.70
2019-01-26T14:02:41.992Z,100499.50
2019-01-26T14:05:10.300Z,100494.39
2019-01-26T14:07:38.804Z,100499.50
2019-01-26T14:10:07.370Z,100499.90
2019-01-26T14:12:35.716Z,100494.81
2019-01-26T14:15:04.197Z,100493.97
2019-01-26T14:17:32.655Z,100495.24
2019-01-26T14:20:01.082Z,100499.02
2019-01-26T14:22:30.510Z,100501.17
2019-01-26T14:24:58.876Z,100490.95
2019-01-26T14:27:27.275Z,100490.07
2019-01-26T14:29:55.876Z,100486.30
2019-01-26T14:32:24.269Z,100490.95
2019-01-26T14:34:52.683Z,100482.37
2019-01-26T14:37:21.246Z,100491.30
2019-01-26T14:39:49.780Z,100488.83
2019-01-26T14:42:18.231Z,100496.03
2019-01-26T14:44:47.536Z,100496.91
2019-01-26T14:47:15.944Z,100497.38
2019-01-26T14:49:44.479Z,100499.50
2019-01-26T14:52:13.776Z,100505.47
2019-01-26T14:54:42.168Z,100505.03
2019-01-26T14:57:10.539Z,100505.52
2019-01-26T14:59:39.076Z,100511.89
2019-01-26T15:02:07.896Z,100506.39
2019-01-26T15:04:36.294Z,100511.91
2019-01-26T15:07:05.021Z,100508.94
2019-01-26T15:09:33.472Z,100510.20
2019-01-26T15:12:01.888Z,100505.92
2019-01-26T15:14:30.369Z,100503.39
2019-01-26T15:16:58.809Z,100505.52
2019-01-26T15:19:27.343Z,100501.25
2019-01-26T15:21:55.957Z,100490.16
2019-01-26T15:24:24.426Z,100502.08
2019-01-26T15:26:52.876Z,100502.52
2019-01-26T15:29:21.402Z,100500.43
2019-01-26T15:31:49.839Z,100499.92
2019-01-26T15:34:18.268Z,100499.95
2019-01-26T15:36:46.861Z,100502.54
2019-01-26T15:39:15.204Z,100500.44
2019-01-26T15:41:43.501Z,100497.02
2019-01-26T15:44:11.967Z,100492.34
2019-01-26T15:46:40.283Z,100491.06
2019-01-26T15:49:08.579Z,100488.48
2019-01-26T15:51:36.956Z,100493.16
2019-01-26T15:54:05.227Z,100486.77
2019-01-26T15:56:33.565Z,100482.52
2019-01-26T15:59:01.995Z,100486.31
2019-01-26T16:01:30.236Z,100487.64
2019-01-26T16:03:58.543Z,100486.77
2019-01-26T16:06:26.980Z,100488.05
2019-01-26T16:08:55.283Z,100483.37
2019-01-26T16:11:23.539Z,100490.61
2019-01-26T16:13:53.276Z,100489.73
2019-01-26T16:16:21.567Z,100491.47
2019-01-26T16:18:49.976Z,100489.33
2019-01-26T16:21:18.627Z,100485.94
2019-01-26T16:23:46.891Z,100485.47
2019-01-26T16:26:15.151Z,100482.46
2019-01-26T16:28:43.563Z,100477.84
2019-01-26T16:31:11.823Z,100481.22
2019-01-26T16:33:40.112Z,100477.39
2019-01-26T16:36:08.468Z,100478.25
2019-01-26T16:38:36.809Z,100477.40
2019-01-26T16:41:05.084Z,100476.12
2019-01-26T16:43:33.547Z,100467.13
2019-01-26T16:46:01.900Z,100473.52
2019-01-26T16:48:30.161Z,100471.35
2019-01-26T16:50:58.587Z,100473.09
2019-01-26T16:53:26.894Z,100464.94
2019-01-26T16:55:55.168Z,100462.38
2019-01-26T16:58:23.615Z,100472.16
2019-01-26T17:00:53.278Z,100469.56
2019-01-26T17:03:21.593Z,100466.17
2019-01-26T17:05:50.165Z,100464.48
2019-01-26T17:08:18.567Z,100464.88
2019-01-26T17:10:46.991Z,100466.58
2019-01-26T17:13:15.455Z,100473.00
2019-01-26T17:15:43.784Z,100473.88
2019-01-26T17:18:13.783Z,100469.17
2019-01-26T17:20:42.314Z,100472.96
2019-01-26T17:23:10.879Z,100466.16
2019-01-26T17:25:39.334Z,100469.97
2019-01-26T17:28:07.850Z,100470.00
2019-01-26T17:30:37.200Z,100467.89
2019-01-26T17:33:07.513Z,100472.14
2019-01-26T17:35:36.399Z,100475.56
2019-01-26T17:38:04.751Z,100471.28
2019-01-26T17:40:33.169Z,100470.42
2019-01-26T17:43:01.614Z,100479.95
2019-01-26T17:45:30.545Z,100482.09
2019-01-26T17:47:59.892Z,100481.19
2019-01-26T17:50:28.331Z,100469.17
2019-01-26T17:52:59.036Z,100472.70
2019-01-26T17:55:27.340Z,100476.53
2019-01-26T17:57:55.696Z,100468.83
2019-01-26T18:00:36.231Z,100462.82
2019-01-26T18:03:04.634Z,100458.56
2019-01-26T18:05:32.919Z,100457.24
2019-01-26T18:08:01.316Z,100465.84
2019-01-26T18:10:29.829Z,100459.44
2019-01-26T18:12:58.231Z,100467.58
2019-01-26T18:15:26.747Z,100473.99
2019-01-26T18:17:55.592Z,100473.55
2019-01-26T18:20:24.879Z,100479.08
2019-01-26T18:22:55.542Z,100461.11
2019-01-26T18:25:59.118Z,100465.37
2019-01-26T18:28:27.278Z,100467.90
2019-01-26T18:31:04.832Z,100470.48
2019-01-26T18:33:35.007Z,100462.79
2019-01-26T18:36:03.636Z,100467.55
2019-01-26T18:38:38.022Z,100466.22
2019-01-26T18:41:07.005Z,100463.61
2019-01-26T18:43:56.312Z,100458.14
2019-01-26T18:46:26.219Z,100461.95
2019-01-26T18:48:55.539Z,100463.69
2019-01-26T18:51:36.688Z,100472.23
2019-01-26T18:54:08.176Z,100465.78
2019-01-26T18:56:38.145Z,100464.08
2019-01-26T18:59:06.708Z,100464.09
2019-01-26T19:01:40.075Z,100477.39
2019-01-26T19:04:19.204Z,100473.55
2019-01-26T19:06:47.579Z,100469.70
2019-01-26T19:09:15.985Z,100467.17
2019-01-26T19:11:44.345Z,100468.45
2019-01-26T19:14:12.717Z,100461.59
2019-01-26T19:16:41.292Z,100463.31
2019-01-26T19:19:09.700Z,100464.55
2019-01-26T19:21:38.277Z,100452.59
2019-01-26T19:24:06.932Z,100463.30
2019-01-26T19:26:35.556Z,100455.66
2019-01-26T19:29:04.326Z,100453.52
2019-01-26T19:31:33.081Z,100447.94
2019-01-26T19:34:01.588Z,100449.67
2019-01-26T19:36:31.902Z,100445.34
2019-01-26T19:39:00.256Z,100441.52
2019-01-26T19:41:28.713Z,100451.38
2019-01-26T19:43:57.028Z,100444.95
2019-01-26T19:46:25.457Z,100440.73
2019-01-26T19:48:54.037Z,100441.60
2019-01-26T19:51:22.708Z,100441.59
2019-01-26T19:53:52.275Z,100445.88
2019-01-26T19:56:21.067Z,100438.61
2019-01-26T19:58:49.481Z,100436.91
2019-01-26T20:01:17.821Z,100428.39
2019-01-26T20:03:46.327Z,100430.50
2019-01-26T20:06:14.644Z,100423.27
2019-01-26T20:08:42.944Z,100420.27
2019-01-26T20:11:11.372Z,100418.98
2019-01-26T20:13:39.693Z,100422.01
2019-01-26T20:16:07.963Z,100416.88
2019-01-26T20:18:37.871Z,100422.84
2019-01-26T20:21:06.299Z,100418.98
2019-01-26T20:23:34.591Z,100416.43
2019-01-26T20:26:03.059Z,100415.13
2019-01-26T20:28:31.880Z,100416.86
2019-01-26T20:31:00.240Z,100421.11
2019-01-26T20:33:28.747Z,100424.56
2019-01-26T20:35:57.040Z,100418.18
2019-01-26T20:38:25.447Z,100410.07
2019-01-26T20:43:21.215Z,100407.08
2019-01-26T20:45:49.516Z,100402.38
2019-01-26T20:48:17.852Z,100398.11
2019-01-26T20:50:46.268Z,100396.81
2019-01-26T20:53:14.519Z,100395.95
2019-01-26T20:55:42.816Z,100404.08
2019-01-26T20:58:11.167Z,100401.51
2019-01-26T21:00:39.583Z,100401.52
2019-01-26T21:03:08.808Z,100401.52
2019-01-26T21:05:37.275Z,100406.63
2019-01-26T21:08:05.572Z,100405.75
2019-01-26T21:10:33.978Z,100398.50
2019-01-26T21:13:02.450Z,100398.09
2019-01-26T21:15:30.831Z,100407.48
2019-01-26T21:17:59.199Z,100399.37
2019-01-26T21:20:27.752Z,100388.72
2019-01-26T21:22:56.076Z,100399.36
2019-01-26T21:25:24.347Z,100392.59
2019-01-26T21:27:52.806Z,100399.80
2019-01-26T21:30:22.053Z,100401.08
2019-01-26T21:32:50.329Z,100404.09
2019-01-26T21:35:18.671Z,100399.38
2019-01-26T21:37:47.008Z,100394.70
2019-01-26T21:40:16.559Z,100395.95
2019-01-26T21:42:44.976Z,100390.84
2019-01-26T21:45:13.467Z,100390.82
2019-01-26T21:47:41.839Z,100397.66
2019-01-26T21:50:11.876Z,100400.28
2019-01-26T21:52:41.068Z,100399.84
2019-01-26T21:55:09.584Z,100395.56
2019-01-26T21:57:38.033Z,100405.80
2019-01-26T22:00:10.719Z,100404.94
2019-01-26T22:02:39.152Z,100398.96
2019-01-26T22:05:07.944Z,100408.32
2019-01-26T22:07:36.333Z,100402.78
2019-01-26T22:10:05.131Z,100399.36
2019-01-26T22:12:33.507Z,100392.51
2019-01-26T22:15:01.811Z,100396.77
2019-01-26T22:17:30.160Z,100395.91
2019-01-26T22:19:58.560Z,100396.35
2019-01-26T22:22:26.958Z,100399.76
2019-01-26T22:24:55.449Z,100397.22
2019-01-26T22:29:51.579Z,100391.23
2019-01-26T22:32:20.150Z,100392.06
2019-01-26T22:34:48.696Z,100391.26
2019-01-26T22:37:19.928Z,100396.77
2019-01-26T22:39:48.918Z,100398.89
2019-01-26T22:42:17.674Z,100396.36
2019-01-26T22:44:46.274Z,100393.35
2019-01-26T22:47:14.742Z,100389.94
2019-01-26T22:49:45.227Z,100392.50
2019-01-26T22:52:13.793Z,100396.34
2019-01-26T22:54:42.167Z,100390.82
2019-01-26T22:57:10.581Z,100395.55
2019-01-26T22:59:39.025Z,100390.80
2019-01-26T23:02:10.538Z,100387.86
2019-01-26T23:04:53.142Z,100392.12
2019-01-26T23:07:41.799Z,100398.91
2019-01-26T23:10:13.383Z,100395.94
2019-01-26T23:12:48.911Z,100412.59
2019-01-26T23:15:35.128Z,100403.63
2019-01-26T23:18:08.129Z,100411.69
2019-01-26T23:20:46.020Z,100426.23
2019-01-26T23:23:22.091Z,100412.55
2019-01-26T23:26:16.032Z,100422.38
2019-01-26T23:29:03.534Z,100425.81
2019-01-26T23:31:32.103Z,100419.81
2019-01-26T23:34:00.680Z,100422.83
2019-01-26T23:36:29.110Z,100425.83
2019-01-26T23:39:02.205Z,100414.27
2019-01-26T23:41:27.653Z,100416.86
2019-01-26T23:43:56.023Z,100417.72
2019-01-26T23:46:24.635Z,100413.43
2019-01-26T23:48:53.087Z,100410.86
2019-01-26T23:51:21.518Z,100412.15
2019-01-26T23:53:50.318Z,100411.74
2019-01-26T23:56:18.698Z,100411.75
2019-01-26T23:58:47.549Z,100409.16
